Time;durP1;ratioP1;P1;durP2;ratioP2;P2;SDS_P1;SDS_P2;PMS_P1;PMS_P2;Temp;Humidity;BMP_temperature;BMP_pressure;BME280_temperature;BME280_humidity;BME280_pressure;Samples;Min_cycle;Max_cycle;Signal;HPM_P1;HPM_P2
2023/08/28 00:01:05;;;;;;;476.58;427.20;;;27.20;99.90;;;;;;5035563;28;20032;-69
2023/08/28 00:03:31;;;;;;;480.75;431.60;;;27.30;99.90;;;;;;5035321;28;20036;-68
2023/08/28 00:05:58;;;;;;;504.08;452.17;;;27.30;99.90;;;;;;5035226;28;20033;-68
2023/08/28 00:08:25;;;;;;;496.77;445.83;;;27.30;99.90;;;;;;5035102;28;20363;-68
2023/08/28 00:10:53;;;;;;;490.55;440.35;;;27.30;99.90;;;;;;5034915;28;20148;-69
2023/08/28 00:13:20;;;;;;;513.45;461.10;;;27.30;99.90;;;;;;5035227;28;20032;-69
2023/08/28 00:15:46;;;;;;;495.30;444.73;;;27.30;99.90;;;;;;5034841;28;20035;-68
2023/08/28 00:18:13;;;;;;;489.63;439.70;;;27.40;99.90;;;;;;5034804;28;20029;-69
2023/08/28 00:20:40;;;;;;;484.10;434.80;;;27.40;99.90;;;;;;5034867;28;20027;-71
2023/08/28 00:23:07;;;;;;;492.30;441.73;;;27.40;99.90;;;;;;5034696;28;20047;-69
2023/08/28 00:25:33;;;;;;;491.63;441.25;;;27.40;99.90;;;;;;5034767;28;20029;-69
2023/08/28 00:28:00;;;;;;;494.30;443.63;;;27.50;99.90;;;;;;5034615;28;20513;-69
2023/08/28 00:30:26;;;;;;;484.65;435.50;;;27.50;99.90;;;;;;5035093;28;20029;-69
2023/08/28 00:32:53;;;;;;;481.38;432.20;;;27.50;99.90;;;;;;5034539;28;20017;-70
2023/08/28 00:35:19;;;;;;;572.30;515.35;;;27.50;99.90;;;;;;5034648;28;20021;-67
2023/08/28 00:37:46;;;;;;;611.13;551.70;;;27.60;99.90;;;;;;5034782;28;20063;-68
2023/08/28 00:40:13;;;;;;;561.60;505.40;;;27.60;99.90;;;;;;5034496;28;20089;-67
2023/08/28 00:42:40;;;;;;;616.53;556.70;;;27.60;99.90;;;;;;5034373;28;20060;-67
2023/08/28 00:45:07;;;;;;;630.90;569.30;;;27.60;99.90;;;;;;5034485;28;20062;-67
2023/08/28 00:47:35;;;;;;;593.95;535.15;;;27.60;99.90;;;;;;5034422;28;20516;-67
2023/08/28 00:50:04;;;;;;;580.90;523.60;;;27.70;99.90;;;;;;5034364;28;20026;-67
2023/08/28 00:52:31;;;;;;;596.72;538.85;;;27.70;99.90;;;;;;5034387;28;20379;-68
2023/08/28 00:54:58;;;;;;;589.80;531.08;;;27.70;99.90;;;;;;5034293;28;20029;-68
2023/08/28 00:57:24;;;;;;;619.20;558.25;;;27.70;99.90;;;;;;5034085;28;20025;-66
2023/08/28 00:59:51;;;;;;;641.67;578.63;;;27.80;99.90;;;;;;5034103;28;20029;-66
2023/08/28 01:02:18;;;;;;;733.42;664.22;;;27.80;99.90;;;;;;5034083;28;20028;-66
2023/08/28 01:04:44;;;;;;;711.42;643.20;;;27.90;99.90;;;;;;5033735;28;20462;-66
2023/08/28 01:07:25;;;;;;;602.03;542.80;;;27.90;99.90;;;;;;5034002;28;20053;-67
2023/08/28 01:09:52;;;;;;;700.17;632.92;;;27.90;99.90;;;;;;5033952;28;20418;-66
2023/08/28 01:12:34;;;;;;;681.92;616.20;;;28.00;99.90;;;;;;5033869;28;20029;-66
2023/08/28 01:15:12;;;;;;;653.58;590.20;;;28.00;99.90;;;;;;5033838;28;20075;-68
2023/08/28 01:17:40;;;;;;;658.38;594.22;;;28.10;99.90;;;;;;5033749;28;20033;-66
2023/08/28 01:20:14;;;;;;;684.08;618.38;;;28.20;99.90;;;;;;5033823;28;20060;-67
2023/08/28 01:23:09;;;;;;;558.80;502.23;;;28.20;99.90;;;;;;5033804;28;20359;-68
2023/08/28 01:25:36;;;;;;;542.42;488.13;;;28.30;99.90;;;;;;5032971;28;20038;-66
2023/08/28 01:28:03;;;;;;;663.88;600.70;;;28.30;99.90;;;;;;5032972;28;20048;-66
2023/08/28 01:30:29;;;;;;;578.03;520.40;;;28.40;99.90;;;;;;5033745;28;20060;-66
2023/08/28 01:32:56;;;;;;;579.20;521.53;;;28.50;99.90;;;;;;5033515;28;20137;-66
2023/08/28 01:35:25;;;;;;;573.72;517.05;;;28.50;99.90;;;;;;5033598;28;20104;-66
2023/08/28 01:38:00;;;;;;;577.65;520.15;;;28.70;99.90;;;;;;5033506;28;20470;-66
2023/08/28 01:40:49;;;;;;;581.25;523.78;;;28.70;99.90;;;;;;5032994;28;20052;-67
2023/08/28 01:43:20;;;;;;;546.53;492.77;;;28.80;99.90;;;;;;5033166;28;20087;-65
2023/08/28 01:45:47;;;;;;;580.97;522.95;;;28.80;99.90;;;;;;5033252;28;20068;-66
2023/08/28 01:48:16;;;;;;;653.60;590.17;;;28.90;99.90;;;;;;5033276;28;20483;-66
2023/08/28 01:50:43;;;;;;;657.70;594.55;;;28.90;99.90;;;;;;5033463;28;20021;-66
2023/08/28 01:53:10;;;;;;;720.97;652.40;;;29.00;99.90;;;;;;5033578;28;20022;-66
2023/08/28 01:56:06;;;;;;;684.05;618.88;;;29.10;99.90;;;;;;5033390;28;20471;-66
2023/08/28 01:58:52;;;;;;;691.05;624.78;;;29.20;99.90;;;;;;5033078;28;20029;-66
2023/08/28 02:01:19;;;;;;;757.25;686.08;;;29.20;99.90;;;;;;5033229;28;20022;-66
2023/08/28 02:03:46;;;;;;;1241.63;999.90;;;29.30;99.90;;;;;;5033041;28;20083;-66
2023/08/28 02:06:13;;;;;;;1180.60;999.90;;;29.30;99.90;;;;;;5033201;28;20024;-66
2023/08/28 02:08:40;;;;;;;1161.32;999.90;;;29.30;99.90;;;;;;5033266;28;20072;-67
2023/08/28 02:11:07;;;;;;;941.90;852.05;;;29.40;99.90;;;;;;5032849;28;20065;-66
2023/08/28 02:13:34;;;;;;;969.25;876.35;;;29.50;99.90;;;;;;5033194;28;20091;-67
2023/08/28 02:16:02;;;;;;;1181.53;999.90;;;29.50;99.90;;;;;;5032965;28;20018;-67
2023/08/28 02:18:30;;;;;;;1289.57;999.90;;;29.60;99.90;;;;;;5030777;28;20475;-66
2023/08/28 02:20:56;;;;;;;1293.15;999.90;;;29.60;99.90;;;;;;5026007;28;20026;-66
2023/08/28 02:23:25;;;;;;;1508.38;999.90;;;29.60;99.90;;;;;;5023543;28;20022;-66
2023/08/28 02:25:52;;;;;;;1388.80;999.90;;;29.70;99.90;;;;;;5022871;28;20028;-66
2023/08/28 02:28:19;;;;;;;896.65;810.70;;;29.70;99.90;;;;;;5024380;28;20030;-66
2023/08/28 02:30:46;;;;;;;810.15;733.53;;;29.80;99.90;;;;;;5022863;28;20021;-66
2023/08/28 02:33:13;;;;;;;686.65;620.88;;;29.80;99.90;;;;;;5023549;28;20030;-66
2023/08/28 02:35:40;;;;;;;671.35;608.03;;;30.00;99.90;;;;;;5021743;28;20022;-65
2023/08/28 02:38:08;;;;;;;698.67;632.03;;;30.10;99.90;;;;;;5022655;28;20374;-66
2023/08/28 02:40:37;;;;;;;797.67;722.10;;;30.00;99.90;;;;;;5026034;28;20033;-66
2023/08/28 02:43:06;;;;;;;770.92;694.90;;;30.00;99.90;;;;;;5026353;28;20034;-66
2023/08/28 02:45:34;;;;;;;598.72;539.97;;;29.90;99.90;;;;;;5028218;28;20389;-67
2023/08/28 02:48:01;;;;;;;546.75;492.95;;;30.00;99.90;;;;;;5036449;28;20470;-66
2023/08/28 02:50:27;;;;;;;557.72;502.13;;;30.10;99.90;;;;;;5036795;28;20029;-67
2023/08/28 02:52:54;;;;;;;536.60;483.60;;;30.20;99.90;;;;;;5036681;28;20151;-67
2023/08/28 02:55:22;;;;;;;562.80;507.13;;;30.20;99.90;;;;;;5036077;28;20087;-67
2023/08/28 02:57:49;;;;;;;533.00;479.65;;;30.20;99.90;;;;;;5036102;28;20044;-68
2023/08/28 03:00:18;;;;;;;569.67;513.25;;;30.30;99.90;;;;;;5036342;28;20059;-68
2023/08/28 03:02:45;;;;;;;627.15;564.30;;;30.30;99.90;;;;;;5036591;28;20108;-70
2023/08/28 03:05:12;;;;;;;607.13;547.03;;;30.40;99.90;;;;;;5036476;28;20543;-68
2023/08/28 03:07:39;;;;;;;631.38;570.30;;;30.40;99.90;;;;;;5036094;28;20108;-68
2023/08/28 03:10:08;;;;;;;688.03;622.45;;;30.40;99.90;;;;;;5035825;28;20062;-67
2023/08/28 03:12:35;;;;;;;780.22;706.83;;;30.40;99.90;;;;;;5036052;28;20084;-68
2023/08/28 03:15:01;;;;;;;895.63;809.67;;;30.40;99.90;;;;;;5035244;28;20009;-66
2023/08/28 03:17:28;;;;;;;1288.55;999.90;;;30.40;99.90;;;;;;5023663;28;20033;-66
2023/08/28 03:19:54;;;;;;;526.60;474.05;;;30.50;99.90;;;;;;5026522;28;20030;-67
2023/08/28 03:22:21;;;;;;;521.38;469.27;;;30.50;99.90;;;;;;5024751;28;20365;-69
2023/08/28 03:24:47;;;;;;;454.02;408.23;;;30.50;99.90;;;;;;5025608;28;20029;-69
2023/08/28 03:27:14;;;;;;;480.15;431.25;;;30.70;99.90;;;;;;5026467;28;20103;-69
2023/08/28 03:29:40;;;;;;;477.55;428.48;;;30.70;99.90;;;;;;5024729;28;20022;-68
2023/08/28 03:32:07;;;;;;;506.88;456.02;;;30.70;99.90;;;;;;5025438;28;20021;-71
2023/08/28 03:34:33;;;;;;;519.55;467.48;;;30.80;99.90;;;;;;5026293;28;20073;-70
2023/08/28 03:37:00;;;;;;;529.45;476.42;;;30.80;99.90;;;;;;5024472;28;20026;-72
2023/08/28 03:39:26;;;;;;;598.70;540.45;;;30.90;99.90;;;;;;5025338;28;20017;-68
2023/08/28 03:41:53;;;;;;;685.05;619.85;;;30.90;99.90;;;;;;5026150;28;20419;-74
2023/08/28 03:44:19;;;;;;;1007.33;909.72;;;30.90;99.90;;;;;;5024126;28;20041;-75
2023/08/28 03:46:46;;;;;;;1115.90;999.08;;;31.00;99.90;;;;;;5025197;28;20026;-66
2023/08/28 03:49:12;;;;;;;878.15;779.15;;;31.00;99.90;;;;;;5025959;28;20116;-67
2023/08/28 03:51:39;;;;;;;353.38;318.83;;;31.00;99.90;;;;;;5023417;28;20096;-69
2023/08/28 03:54:12;;;;;;;305.48;276.48;;;31.10;99.90;;;;;;5025305;28;20017;-69
2023/08/28 03:56:39;;;;;;;292.13;265.20;;;31.10;99.90;;;;;;5026041;28;20080;-67
2023/08/28 03:59:06;;;;;;;280.33;254.38;;;31.20;99.90;;;;;;5024778;28;20030;-74
2023/08/28 04:01:34;;;;;;;236.55;215.35;;;31.30;99.90;;;;;;5024257;28;20025;-70
2023/08/28 04:04:00;;;;;;;222.10;201.80;;;31.30;99.90;;;;;;5026223;28;20022;-70
2023/08/28 04:06:27;;;;;;;252.25;229.60;;;31.30;99.90;;;;;;5023949;28;20056;-70
2023/08/28 04:08:53;;;;;;;288.05;260.92;;;31.30;99.90;;;;;;5025227;28;20427;-69
2023/08/28 04:11:20;;;;;;;315.85;286.23;;;31.30;99.90;;;;;;5024326;28;20033;-68
2023/08/28 04:13:46;;;;;;;322.17;291.27;;;31.40;99.90;;;;;;5022611;28;20029;-69
2023/08/28 04:16:13;;;;;;;326.73;295.85;;;31.30;99.90;;;;;;5022365;28;20029;-67
2023/08/28 04:18:39;;;;;;;260.67;237.07;;;31.30;99.90;;;;;;5022803;28;20048;-70
2023/08/28 04:21:06;;;;;;;385.00;347.50;;;31.20;99.90;;;;;;5023684;28;20100;-70
2023/08/28 04:23:33;;;;;;;343.52;310.65;;;31.20;99.90;;;;;;5023901;28;20022;-67
2023/08/28 04:26:00;;;;;;;378.30;341.40;;;31.30;99.90;;;;;;5025511;28;20013;-67
2023/08/28 04:28:27;;;;;;;408.60;367.80;;;31.30;99.90;;;;;;5025556;28;20010;-67
2023/08/28 04:30:54;;;;;;;400.55;360.27;;;31.40;99.90;;;;;;5024956;28;20022;-70
2023/08/28 04:33:21;;;;;;;375.52;338.20;;;31.40;99.90;;;;;;5024727;28;20020;-68
2023/08/28 04:35:47;;;;;;;322.20;291.48;;;31.50;99.90;;;;;;5031155;28;20387;-68
2023/08/28 04:38:14;;;;;;;334.73;302.88;;;31.50;99.90;;;;;;5035746;28;20025;-68
2023/08/28 04:40:40;;;;;;;325.60;294.95;;;31.50;99.90;;;;;;5034346;28;20021;-68
2023/08/28 04:43:07;;;;;;;378.83;341.60;;;31.70;99.90;;;;;;5034518;28;20541;-68
2023/08/28 04:45:34;;;;;;;450.20;404.38;;;31.70;99.90;;;;;;5034316;28;20033;-70
2023/08/28 04:48:00;;;;;;;482.05;433.30;;;31.80;99.90;;;;;;5034127;28;20018;-70
2023/08/28 04:50:27;;;;;;;482.42;433.85;;;31.90;99.90;;;;;;5034307;28;20067;-71
2023/08/28 04:52:53;;;;;;;448.58;402.95;;;31.90;99.90;;;;;;5034226;28;20017;-70
2023/08/28 04:55:20;;;;;;;440.45;395.70;;;31.90;99.90;;;;;;5034093;28;20387;-68
2023/08/28 04:57:46;;;;;;;444.90;399.83;;;31.80;99.90;;;;;;5034181;28;20471;-69
2023/08/28 05:00:13;;;;;;;509.95;459.17;;;31.80;99.90;;;;;;5034157;28;20021;-68
2023/08/28 05:02:40;;;;;;;566.53;510.75;;;31.80;99.90;;;;;;5033405;28;20071;-68
2023/08/28 05:05:07;;;;;;;1396.85;999.90;;;31.80;99.90;;;;;;5034141;28;20486;-69
2023/08/28 05:07:33;;;;;;;475.63;427.02;;;31.80;99.90;;;;;;5034286;28;20033;-69
2023/08/28 05:10:01;;;;;;;1159.90;999.90;;;32.00;99.90;;;;;;5033478;28;20049;-67
2023/08/28 05:12:27;;;;;;;537.40;483.80;;;32.10;99.90;;;;;;5033979;28;20033;-67
2023/08/28 05:14:54;;;;;;;1239.45;999.90;;;32.30;99.90;;;;;;5033778;28;20449;-66
2023/08/28 05:17:20;;;;;;;344.60;311.45;;;32.40;99.90;;;;;;5033547;28;20041;-69
2023/08/28 05:19:47;;;;;;;477.23;429.30;;;32.50;99.90;;;;;;5033729;28;20091;-67
2023/08/28 05:22:13;;;;;;;410.00;368.48;;;32.50;99.90;;;;;;5033797;28;20028;-67
2023/08/28 05:24:40;;;;;;;465.80;418.27;;;32.50;99.90;;;;;;5033552;28;20026;-68
2023/08/28 05:27:08;;;;;;;409.30;368.17;;;32.50;99.90;;;;;;5032804;28;20030;-68
2023/08/28 05:29:35;;;;;;;404.25;363.67;;;32.50;99.90;;;;;;5033468;28;20034;-69
2023/08/28 05:32:01;;;;;;;400.15;360.38;;;32.60;99.90;;;;;;5029177;28;20356;-68
2023/08/28 05:34:28;;;;;;;401.75;361.52;;;32.70;99.90;;;;;;5027139;28;20053;-70
2023/08/28 05:36:54;;;;;;;364.27;328.88;;;32.80;99.90;;;;;;5033545;28;20017;-68
2023/08/28 05:39:21;;;;;;;323.30;293.15;;;32.70;99.90;;;;;;5033426;28;20028;-69
2023/08/28 05:41:47;;;;;;;289.40;262.95;;;32.70;99.90;;;;;;5032874;28;20033;-68
2023/08/28 05:44:14;;;;;;;328.05;297.50;;;32.50;99.90;;;;;;5032886;28;20025;-70
2023/08/28 05:46:40;;;;;;;333.88;302.40;;;32.50;99.90;;;;;;5023845;28;20057;-71
2023/08/28 05:49:07;;;;;;;310.98;281.92;;;32.50;99.90;;;;;;5023081;28;20010;-66
2023/08/28 05:51:33;;;;;;;343.60;310.88;;;32.60;99.90;;;;;;5024253;28;20079;-69
2023/08/28 05:54:00;;;;;;;337.63;305.27;;;32.60;99.90;;;;;;5022446;28;20044;-68
2023/08/28 05:56:26;;;;;;;345.60;311.98;;;32.60;99.90;;;;;;5022828;28;20378;-68
2023/08/28 05:58:53;;;;;;;84.85;76.53;;;32.60;99.90;;;;;;5024227;28;20029;-68
2023/08/28 06:01:19;;;;;;;73.57;66.55;;;32.60;99.90;;;;;;5022114;28;20022;-66
2023/08/28 06:03:46;;;;;;;47.78;39.63;;;32.70;99.90;;;;;;5022981;28;20047;-69
2023/08/28 06:06:13;;;;;;;83.85;76.25;;;32.80;99.90;;;;;;5023898;28;20026;-69
2023/08/28 06:08:39;;;;;;;206.30;188.18;;;32.90;99.90;;;;;;5022066;28;20033;-72
2023/08/28 06:11:06;;;;;;;193.50;176.90;;;32.90;99.90;;;;;;5015242;28;20405;-72
2023/08/28 06:13:32;;;;;;;202.63;184.57;;;33.00;99.90;;;;;;5032656;28;20045;-68
2023/08/28 06:15:59;;;;;;;193.40;177.07;;;33.00;99.90;;;;;;5036090;28;20056;-67
2023/08/28 06:18:26;;;;;;;204.95;187.02;;;33.20;99.90;;;;;;5036801;28;20026;-69
2023/08/28 06:20:53;;;;;;;193.07;176.38;;;33.30;99.90;;;;;;5037026;28;20021;-69
2023/08/28 06:23:20;;;;;;;232.52;211.82;;;33.40;99.90;;;;;;5037072;28;20097;-68
2023/08/28 06:25:47;;;;;;;204.93;187.05;;;33.50;99.90;;;;;;5036914;28;20022;-69
2023/08/28 06:28:14;;;;;;;196.30;178.73;;;33.50;99.90;;;;;;5037091;28;20033;-69
2023/08/28 06:30:41;;;;;;;177.43;161.70;;;33.60;99.90;;;;;;5036855;28;20556;-68
2023/08/28 06:33:08;;;;;;;222.38;202.95;;;33.50;99.90;;;;;;5036537;28;20052;-69
2023/08/28 06:35:34;;;;;;;195.13;177.85;;;33.40;99.90;;;;;;5036737;28;20029;-68
2023/08/28 06:38:01;;;;;;;185.38;169.10;;;33.40;99.90;;;;;;5036778;28;20029;-66
2023/08/28 06:40:28;;;;;;;197.20;179.75;;;33.30;99.90;;;;;;5036912;28;20033;-69
2023/08/28 06:42:54;;;;;;;175.63;159.95;;;33.30;99.90;;;;;;5036824;28;20021;-70
2023/08/28 06:45:21;;;;;;;178.77;163.23;;;33.30;99.90;;;;;;5036780;28;20021;-67
2023/08/28 06:47:47;;;;;;;173.68;158.85;;;33.30;99.90;;;;;;5036409;28;20029;-68
2023/08/28 06:50:14;;;;;;;165.27;151.25;;;33.20;99.90;;;;;;5035454;28;20371;-68
2023/08/28 06:52:40;;;;;;;147.15;134.25;;;33.10;99.90;;;;;;5035388;28;20024;-67
2023/08/28 06:55:07;;;;;;;133.23;121.65;;;33.10;99.90;;;;;;5036115;28;20014;-71
2023/08/28 06:57:33;;;;;;;173.60;158.57;;;33.10;99.90;;;;;;5031068;28;20621;-70
2023/08/28 07:00:00;;;;;;;215.48;196.32;;;33.10;99.90;;;;;;5027497;28;20022;-70
2023/08/28 07:02:30;;;;;;;183.05;166.85;;;33.10;99.90;;;;;;5024123;28;20047;-69
2023/08/28 07:04:57;;;;;;;222.45;202.80;;;33.10;99.90;;;;;;5024518;28;20495;-69
2023/08/28 07:07:23;;;;;;;233.68;212.80;;;33.00;99.90;;;;;;5022914;28;20028;-71
2023/08/28 07:09:50;;;;;;;254.52;231.75;;;33.00;99.90;;;;;;5025243;28;20034;-70
2023/08/28 07:12:16;;;;;;;261.70;237.73;;;33.00;99.90;;;;;;5025619;28;20018;-70
2023/08/28 07:14:43;;;;;;;226.23;205.80;;;33.00;99.90;;;;;;5025407;28;20375;-70
2023/08/28 07:17:09;;;;;;;228.60;208.25;;;33.00;99.90;;;;;;5025771;28;20014;-70
2023/08/28 07:19:38;;;;;;;220.05;200.82;;;33.00;99.90;;;;;;5025242;28;20021;-69
2023/08/28 07:22:04;;;;;;;165.27;150.05;;;33.00;99.90;;;;;;5026575;28;20013;-70
2023/08/28 07:24:31;;;;;;;208.10;190.07;;;33.00;99.90;;;;;;5025088;28;20022;-69
2023/08/28 07:26:57;;;;;;;153.60;140.38;;;33.00;99.90;;;;;;5023738;28;20116;-69
2023/08/28 07:29:24;;;;;;;174.73;159.52;;;33.10;99.90;;;;;;5026323;28;20014;-68
2023/08/28 07:31:51;;;;;;;185.38;169.18;;;33.10;99.90;;;;;;5025007;28;20370;-69
2023/08/28 07:34:17;;;;;;;127.35;116.63;;;33.20;99.90;;;;;;5025046;28;20022;-70
2023/08/28 07:36:44;;;;;;;165.48;150.63;;;33.30;99.90;;;;;;5015966;28;20022;-71
2023/08/28 07:39:11;;;;;;;82.53;74.18;;;33.40;99.90;;;;;;5024021;28;20025;-70
2023/08/28 07:41:37;;;;;;;66.68;60.33;;;33.50;99.90;;;;;;5023606;28;20033;-69
2023/08/28 07:44:04;;;;;;;67.60;61.17;;;33.60;99.90;;;;;;5025612;28;20029;-69
2023/08/28 07:46:31;;;;;;;67.30;60.95;;;33.70;99.90;;;;;;5026698;28;20467;-68
2023/08/28 07:48:58;;;;;;;48.47;40.67;;;33.70;99.90;;;;;;5024473;28;20022;-67
2023/08/28 07:51:24;;;;;;;39.42;29.40;;;33.70;99.90;;;;;;5025296;28;20021;-67
2023/08/28 07:53:51;;;;;;;38.15;30.73;;;33.70;99.90;;;;;;5025684;28;20018;-69
2023/08/28 07:56:17;;;;;;;40.78;29.73;;;33.70;99.90;;;;;;5023812;28;20036;-69
2023/08/28 07:58:44;;;;;;;38.20;29.25;;;33.60;99.90;;;;;;5025487;28;20018;-71
2023/08/28 08:01:11;;;;;;;45.45;31.02;;;33.60;99.90;;;;;;5025634;28;20043;-71
2023/08/28 08:03:38;;;;;;;44.50;30.70;;;33.70;99.90;;;;;;5005988;28;20437;-71
2023/08/28 08:06:06;;;;;;;43.30;28.88;;;33.80;99.90;;;;;;5025529;28;20458;-70
2023/08/28 08:08:33;;;;;;;37.35;29.42;;;33.70;99.90;;;;;;5013980;28;20036;-70
2023/08/28 08:11:00;;;;;;;41.80;30.80;;;33.70;99.90;;;;;;5025477;28;20045;-68
2023/08/28 08:13:26;;;;;;;38.42;28.52;;;33.60;99.90;;;;;;5025010;28;20087;-69
2023/08/28 08:15:53;;;;;;;40.80;30.13;;;33.60;99.90;;;;;;5023715;28;20044;-68
2023/08/28 08:18:20;;;;;;;44.03;30.65;;;33.60;99.90;;;;;;5025042;28;20546;-68
2023/08/28 08:20:46;;;;;;;42.30;32.60;;;33.60;99.90;;;;;;5025851;28;20101;-68
2023/08/28 08:23:13;;;;;;;47.70;35.08;;;33.60;99.90;;;;;;5023800;28;20022;-69
2023/08/28 08:25:39;;;;;;;174.18;109.57;;;33.60;99.90;;;;;;5025627;28;20018;-67
2023/08/28 08:28:06;;;;;;;123.28;70.15;;;33.60;99.90;;;;;;5024630;28;20045;-67
2023/08/28 08:30:32;;;;;;;48.55;36.25;;;33.60;99.70;;;;;;5021458;28;20022;-73
2023/08/28 08:32:59;;;;;;;39.95;30.58;;;33.50;99.60;;;;;;5029397;28;20105;-73
2023/08/28 08:35:28;;;;;;;45.90;32.33;;;33.40;99.40;;;;;;5034556;28;20501;-69
2023/08/28 08:37:55;;;;;;;47.85;36.65;;;33.50;99.80;;;;;;5034040;28;20029;-68
2023/08/28 08:40:25;;;;;;;56.17;38.60;;;33.50;99.60;;;;;;5034583;28;20028;-70
2023/08/28 08:42:53;;;;;;;71.78;54.83;;;33.50;99.70;;;;;;5034675;28;20036;-68
2023/08/28 08:45:30;;;;;;;47.80;36.80;;;33.60;99.90;;;;;;5034414;28;20100;-69
2023/08/28 08:47:59;;;;;;;48.75;32.35;;;33.60;99.80;;;;;;5034182;28;20274;-69
2023/08/28 08:50:28;;;;;;;56.67;39.75;;;33.70;99.40;;;;;;5034489;28;20117;-73
2023/08/28 08:52:58;;;;;;;47.90;35.33;;;33.60;99.50;;;;;;5034350;28;20378;-70
2023/08/28 08:55:36;;;;;;;53.55;36.95;;;33.60;99.20;;;;;;5034118;28;20355;-70
2023/08/28 08:58:05;;;;;;;366.55;311.35;;;33.70;99.20;;;;;;5034192;28;20017;-71
2023/08/28 09:00:36;;;;;;;62.80;44.33;;;33.60;99.00;;;;;;5033448;28;20111;-67
2023/08/28 09:03:03;;;;;;;55.45;40.17;;;33.60;98.80;;;;;;5034097;28;20029;-71
2023/08/28 09:05:31;;;;;;;57.13;43.20;;;33.60;99.20;;;;;;5034064;28;20141;-72
2023/08/28 09:08:00;;;;;;;61.55;43.20;;;33.60;99.30;;;;;;5033736;28;20033;-72
2023/08/28 09:10:26;;;;;;;40.25;29.75;;;33.60;99.30;;;;;;5033653;28;20048;-66
2023/08/28 09:12:54;;;;;;;69.13;54.28;;;33.60;99.20;;;;;;5033368;28;20100;-70
2023/08/28 09:15:21;;;;;;;128.20;96.45;;;33.60;99.60;;;;;;5029642;28;20093;-68
2023/08/28 09:17:48;;;;;;;93.32;61.30;;;33.60;99.60;;;;;;5024821;28;20397;-69
2023/08/28 09:20:18;;;;;;;50.20;34.13;;;33.60;99.60;;;;;;5025078;28;20056;-70
2023/08/28 09:22:46;;;;;;;51.88;32.33;;;33.60;99.50;;;;;;5025378;28;20025;-71
2023/08/28 09:25:13;;;;;;;49.05;34.85;;;33.60;99.40;;;;;;5022022;28;20022;-71
2023/08/28 09:27:44;;;;;;;89.05;66.43;;;33.50;99.20;;;;;;5022753;28;20439;-68
2023/08/28 09:30:32;;;;;;;47.65;32.38;;;33.50;99.50;;;;;;5025827;28;20060;-70
2023/08/28 09:33:00;;;;;;;50.50;32.97;;;33.50;98.90;;;;;;5021840;28;20475;-68
2023/08/28 09:35:28;;;;;;;82.40;52.63;;;33.40;98.80;;;;;;5022518;28;20519;-69
2023/08/28 09:38:05;;;;;;;66.35;40.72;;;33.50;98.80;;;;;;5026996;28;20021;-69
2023/08/28 09:40:33;;;;;;;58.45;36.05;;;33.40;98.80;;;;;;5023887;28;20032;-70
2023/08/28 09:43:01;;;;;;;54.33;35.50;;;33.30;98.50;;;;;;5022623;28;20037;-68
2023/08/28 09:45:37;;;;;;;58.35;36.35;;;33.30;98.70;;;;;;5023170;28;20037;-68
2023/08/28 09:48:04;;;;;;;54.63;37.95;;;33.30;98.70;;;;;;5021504;28;20097;-68
2023/08/28 09:50:32;;;;;;;78.82;52.33;;;33.30;98.90;;;;;;5021051;28;20040;-69
2023/08/28 09:53:19;;;;;;;72.00;46.38;;;33.30;99.90;;;;;;5021141;28;20021;-68
2023/08/28 09:55:51;;;;;;;177.07;127.45;;;33.30;99.90;;;;;;5025818;28;20458;-69
2023/08/28 09:58:18;;;;;;;116.25;76.55;;;33.20;99.90;;;;;;5028691;28;20044;-69
2023/08/28 10:00:45;;;;;;;145.18;100.85;;;33.10;99.90;;;;;;5025639;28;20042;-69
2023/08/28 10:03:13;;;;;;;157.48;100.55;;;33.10;99.90;;;;;;5030878;28;20041;-68
2023/08/28 10:05:42;;;;;;;148.60;89.07;;;33.00;99.90;;;;;;5031196;28;20032;-69
2023/08/28 10:08:10;;;;;;;308.42;179.25;;;33.00;99.90;;;;;;5027745;28;20018;-71
2023/08/28 10:10:39;;;;;;;215.77;136.48;;;33.00;99.90;;;;;;5023856;28;20506;-68
2023/08/28 10:13:07;;;;;;;196.20;136.43;;;32.90;99.90;;;;;;5022079;28;20378;-71
2023/08/28 10:15:39;;;;;;;183.55;119.88;;;32.90;99.90;;;;;;5023725;28;20075;-68
2023/08/28 10:18:12;;;;;;;183.18;118.90;;;32.80;99.90;;;;;;5023185;28;20014;-70
2023/08/28 10:20:39;;;;;;;237.32;140.95;;;32.80;99.90;;;;;;5022076;28;20018;-71
2023/08/28 10:23:08;;;;;;;179.88;105.55;;;32.80;99.90;;;;;;5022102;28;20022;-69
2023/08/28 10:25:36;;;;;;;248.73;170.45;;;32.70;99.90;;;;;;5021938;28;20364;-70
2023/08/28 10:28:03;;;;;;;251.23;156.35;;;32.70;99.90;;;;;;5023359;28;20040;-70
2023/08/28 10:30:31;;;;;;;213.32;125.68;;;32.70;99.90;;;;;;5024763;28;20407;-67
2023/08/28 10:32:59;;;;;;;194.18;120.70;;;32.70;99.90;;;;;;5022864;28;20037;-68
2023/08/28 10:35:26;;;;;;;235.57;150.98;;;32.60;99.90;;;;;;5023666;28;20131;-69
2023/08/28 10:37:54;;;;;;;207.65;136.43;;;32.60;99.90;;;;;;5023582;28;20495;-68
2023/08/28 10:40:21;;;;;;;174.73;103.15;;;32.60;99.90;;;;;;5022815;28;20025;-67
2023/08/28 10:42:50;;;;;;;202.48;113.50;;;32.50;99.90;;;;;;5023750;28;20030;-73
2023/08/28 10:45:16;;;;;;;179.43;101.70;;;32.50;99.90;;;;;;5024003;28;20029;-73
2023/08/28 10:47:51;;;;;;;162.95;96.70;;;32.50;99.90;;;;;;5021354;28;20029;-67
2023/08/28 10:50:18;;;;;;;152.52;91.53;;;32.50;99.90;;;;;;5011997;28;20475;-69
2023/08/28 10:52:47;;;;;;;175.75;97.70;;;32.50;99.90;;;;;;5029023;28;20486;-67
2023/08/28 10:55:18;;;;;;;154.55;86.63;;;32.50;99.90;;;;;;5021253;28;20018;-69
2023/08/28 10:57:50;;;;;;;195.63;107.45;;;32.50;99.90;;;;;;5022241;28;20026;-70
2023/08/28 11:00:18;;;;;;;179.45;106.00;;;32.40;99.90;;;;;;5022814;28;20387;-69
2023/08/28 11:03:08;;;;;;;172.68;103.40;;;32.40;99.90;;;;;;5028478;28;20021;-69
2023/08/28 11:05:36;;;;;;;211.27;120.88;;;32.30;99.90;;;;;;5025965;28;20022;-67
2023/08/28 11:08:06;;;;;;;200.70;117.10;;;32.30;99.90;;;;;;5025061;28;20041;-69
2023/08/28 11:10:33;;;;;;;186.68;109.72;;;32.20;99.90;;;;;;5026065;28;20097;-71
2023/08/28 11:13:03;;;;;;;200.15;111.40;;;32.30;99.90;;;;;;5026462;28;20023;-68
2023/08/28 11:15:33;;;;;;;204.75;116.20;;;32.20;99.90;;;;;;5025157;28;20022;-70
2023/08/28 11:18:24;;;;;;;195.93;108.78;;;32.10;99.90;;;;;;5025358;28;20101;-71
2023/08/28 11:20:54;;;;;;;211.38;128.30;;;32.10;99.90;;;;;;5024944;28;20018;-69
2023/08/28 11:23:25;;;;;;;168.38;103.32;;;32.10;99.90;;;;;;5024799;28;20022;-69
2023/08/28 11:25:52;;;;;;;152.00;92.57;;;32.00;99.90;;;;;;5025855;28;20027;-69
2023/08/28 11:28:29;;;;;;;170.18;97.10;;;31.90;99.90;;;;;;5032820;28;20128;-68
2023/08/28 11:31:09;;;;;;;173.77;99.57;;;32.00;99.90;;;;;;5016085;28;20018;-68
2023/08/28 11:33:38;;;;;;;143.80;81.82;;;32.00;99.90;;;;;;5015984;28;20022;-69
2023/08/28 11:36:06;;;;;;;117.03;68.80;;;31.90;99.90;;;;;;5026694;28;20079;-67
2023/08/28 11:38:33;;;;;;;157.30;94.68;;;31.80;99.90;;;;;;5027500;28;20583;-68
2023/08/28 11:41:04;;;;;;;122.32;72.65;;;31.80;99.90;;;;;;5033743;28;20029;-67
2023/08/28 11:43:40;;;;;;;151.45;81.05;;;31.80;99.90;;;;;;5033246;28;20044;-66
2023/08/28 11:46:07;;;;;;;159.73;89.28;;;31.80;99.90;;;;;;5028280;28;20025;-66
2023/08/28 11:48:37;;;;;;;123.18;69.65;;;31.80;99.90;;;;;;5030172;28;20029;-66
2023/08/28 11:51:05;;;;;;;146.93;84.55;;;31.70;99.90;;;;;;5035528;28;20033;-68
2023/08/28 11:53:40;;;;;;;116.93;72.18;;;31.70;99.90;;;;;;5037412;28;20079;-69
2023/08/28 11:56:08;;;;;;;129.65;77.93;;;31.70;99.90;;;;;;5027352;28;20022;-67
2023/08/28 11:58:37;;;;;;;167.02;106.72;;;31.70;99.90;;;;;;5028038;28;20108;-66
2023/08/28 12:01:05;;;;;;;93.88;54.78;;;31.60;99.90;;;;;;5035256;28;20029;-67
2023/08/28 12:03:33;;;;;;;74.32;44.20;;;31.50;99.90;;;;;;5020669;28;21268;-70
2023/08/28 12:06:06;;;;;;;68.10;38.28;;;31.40;99.90;;;;;;5029612;28;20049;-68
2023/08/28 12:08:39;;;;;;;138.80;73.95;;;31.30;99.90;;;;;;5029094;28;20494;-66
2023/08/28 12:11:08;;;;;;;78.18;49.53;;;31.30;99.90;;;;;;5035089;28;20037;-68
2023/08/28 12:13:36;;;;;;;102.93;61.05;;;31.20;99.90;;;;;;5023450;28;20029;-66
2023/08/28 12:16:17;;;;;;;76.93;44.28;;;31.30;99.90;;;;;;5032372;28;20479;-66
2023/08/28 12:18:46;;;;;;;75.80;36.83;;;31.20;99.90;;;;;;5028480;28;20533;-70